createdAt,value
2023-01-09T00:01:27.754Z,72.21
2023-01-09T00:03:55.770Z,72.81
2023-01-09T00:06:23.459Z,72.73
2023-01-09T00:08:51.000Z,70.97
2023-01-09T00:11:19.053Z,72.32
2023-01-09T00:13:47.304Z,72.27
2023-01-09T00:16:15.468Z,72.32
2023-01-09T00:18:43.298Z,72.52
2023-01-09T00:21:14.880Z,72.29
2023-01-09T00:23:42.830Z,71.69
2023-01-09T00:26:19.818Z,71.75
2023-01-09T00:28:49.828Z,72.20
2023-01-09T00:31:18.719Z,73.03
2023-01-09T00:34:00.257Z,71.82
2023-01-09T00:36:28.648Z,72.21
2023-01-09T00:38:56.331Z,72.08
2023-01-09T00:41:49.826Z,72.05
2023-01-09T00:44:23.165Z,71.69
2023-01-09T00:46:57.753Z,71.79
2023-01-09T00:49:28.226Z,70.66
2023-01-09T00:51:56.050Z,71.89
2023-01-09T00:54:23.790Z,71.73
2023-01-09T00:56:52.064Z,69.90
2023-01-09T00:59:19.682Z,71.70
2023-01-09T01:01:47.313Z,70.87
2023-01-09T01:04:34.287Z,71.36
2023-01-09T01:07:20.949Z,70.16
2023-01-09T01:09:48.960Z,70.63
2023-01-09T01:12:16.508Z,70.51
2023-01-09T01:14:44.220Z,69.71
2023-01-09T01:17:12.121Z,70.52
2023-01-09T01:19:39.992Z,71.09
2023-01-09T01:22:07.580Z,70.22
2023-01-09T01:24:35.603Z,70.78
2023-01-09T01:27:03.122Z,70.29
2023-01-09T01:29:30.789Z,70.01
2023-01-09T01:31:58.790Z,70.01
2023-01-09T01:34:28.093Z,70.66
2023-01-09T01:36:55.754Z,70.46
2023-01-09T01:39:23.847Z,71.05
2023-01-09T01:41:51.431Z,71.92
2023-01-09T01:44:56.397Z,71.21
2023-01-09T01:47:33.304Z,71.33
2023-01-09T01:50:05.138Z,71.95
2023-01-09T01:52:34.640Z,72.08
2023-01-09T01:55:05.657Z,72.53
2023-01-09T01:57:34.189Z,71.83
2023-01-09T02:00:03.364Z,71.29
2023-01-09T02:02:33.144Z,71.69
2023-01-09T02:05:05.746Z,71.92
2023-01-09T02:07:33.347Z,72.36
2023-01-09T02:10:01.379Z,72.01
2023-01-09T02:12:29.326Z,71.92
2023-01-09T02:15:11.918Z,71.97
2023-01-09T02:18:01.328Z,72.57
2023-01-09T02:20:34.938Z,72.24
2023-01-09T02:23:44.839Z,71.62
2023-01-09T02:26:18.463Z,71.78
2023-01-09T02:29:07.998Z,71.58
2023-01-09T02:31:50.919Z,72.24
2023-01-09T02:34:34.882Z,71.96
2023-01-09T02:37:19.151Z,72.01
2023-01-09T02:40:01.955Z,72.13
2023-01-09T02:42:30.634Z,72.29
2023-01-09T02:44:58.577Z,73.00
2023-01-09T02:47:26.021Z,72.21
2023-01-09T02:49:58.110Z,72.66
2023-01-09T02:52:39.350Z,72.66
2023-01-09T02:55:28.283Z,71.93
2023-01-09T02:58:18.408Z,72.80
2023-01-09T03:00:57.213Z,72.21
2023-01-09T03:03:57.697Z,72.53
2023-01-09T03:06:33.433Z,71.64
2023-01-09T03:09:15.106Z,71.28
2023-01-09T03:11:47.553Z,71.33
2023-01-09T03:14:19.611Z,71.89
2023-01-09T03:16:52.248Z,71.87
2023-01-09T03:19:24.361Z,70.66
2023-01-09T03:21:53.293Z,70.91
2023-01-09T03:24:21.216Z,70.29
2023-01-09T03:26:48.881Z,69.23
2023-01-09T03:29:16.526Z,68.65
2023-01-09T03:31:44.504Z,69.09
2023-01-09T03:34:12.253Z,69.91
2023-01-09T03:36:39.870Z,69.57
2023-01-09T03:39:07.800Z,70.47
2023-01-09T03:41:35.499Z,69.94
2023-01-09T03:44:03.235Z,70.28
2023-01-09T03:46:31.142Z,70.36
2023-01-09T03:48:58.940Z,69.69
2023-01-09T03:51:26.692Z,69.79
2023-01-09T03:53:54.636Z,70.52
2023-01-09T03:56:22.163Z,68.77
2023-01-09T03:58:50.290Z,69.79
2023-01-09T04:01:18.346Z,68.44
2023-01-09T04:03:46.376Z,68.06
2023-01-09T04:06:13.896Z,67.79
2023-01-09T04:08:41.432Z,68.85
2023-01-09T04:11:09.896Z,68.82
2023-01-09T04:13:37.431Z,69.33
2023-01-09T04:16:05.489Z,68.65
2023-01-09T04:18:33.417Z,68.58
2023-01-09T04:21:01.182Z,68.81
2023-01-09T04:23:28.744Z,68.46
2023-01-09T04:25:56.642Z,68.31
2023-01-09T04:28:24.320Z,68.23
2023-01-09T04:30:51.963Z,67.63
2023-01-09T04:33:19.900Z,67.72
2023-01-09T04:35:47.470Z,67.83
2023-01-09T04:38:15.005Z,68.45
2023-01-09T04:40:42.860Z,66.92
2023-01-09T04:43:10.360Z,66.41
2023-01-09T04:45:38.069Z,67.31
2023-01-09T04:48:06.686Z,67.13
2023-01-09T04:50:34.362Z,67.39
2023-01-09T04:53:01.941Z,67.03
2023-01-09T04:55:29.773Z,67.19
2023-01-09T04:57:57.333Z,66.04
2023-01-09T05:00:24.960Z,66.14
2023-01-09T05:02:52.851Z,65.84
2023-01-09T05:05:20.434Z,67.45
2023-01-09T05:07:48.006Z,65.85
2023-01-09T05:10:16.082Z,67.13
2023-01-09T05:12:43.637Z,66.50
2023-01-09T05:15:11.735Z,67.00
2023-01-09T05:17:39.689Z,67.47
2023-01-09T05:20:07.783Z,67.01
2023-01-09T05:22:35.678Z,67.29
2023-01-09T05:25:03.635Z,67.47
2023-01-09T05:27:31.303Z,67.48
2023-01-09T05:29:58.896Z,67.59
2023-01-09T05:32:26.779Z,67.33
2023-01-09T05:34:54.407Z,68.14
2023-01-09T05:37:22.010Z,67.19
2023-01-09T05:39:50.008Z,66.58
2023-01-09T05:42:17.659Z,67.30
2023-01-09T05:44:45.307Z,67.38
2023-01-09T05:47:13.224Z,67.14
2023-01-09T05:49:40.965Z,67.46
2023-01-09T05:52:08.654Z,66.64
2023-01-09T05:54:36.490Z,66.87
2023-01-09T05:57:04.023Z,66.83
2023-01-09T05:59:31.721Z,67.36
2023-01-09T06:01:59.704Z,66.64
2023-01-09T06:04:29.888Z,65.90
2023-01-09T06:06:57.611Z,65.18
2023-01-09T06:09:25.264Z,66.31
2023-01-09T06:11:54.851Z,66.75
2023-01-09T06:14:22.404Z,66.01
2023-01-09T06:16:50.151Z,66.00
2023-01-09T06:19:18.033Z,66.63
2023-01-09T06:21:45.622Z,66.00
2023-01-09T06:24:13.347Z,66.75
2023-01-09T06:26:41.254Z,67.98
2023-01-09T06:29:08.972Z,65.83
2023-01-09T06:31:36.539Z,65.84
2023-01-09T06:34:04.529Z,67.08
2023-01-09T06:36:32.069Z,66.76
2023-01-09T06:38:59.669Z,66.55
2023-01-09T06:41:27.701Z,65.40
2023-01-09T06:43:55.274Z,66.64
2023-01-09T06:46:23.168Z,65.19
2023-01-09T06:48:51.088Z,66.06
2023-01-09T06:51:19.071Z,66.97
2023-01-09T06:53:46.682Z,67.07
2023-01-09T06:56:14.566Z,67.84
2023-01-09T06:58:42.149Z,66.40
2023-01-09T07:01:09.867Z,65.05
2023-01-09T07:03:38.282Z,64.95
2023-01-09T07:06:06.584Z,65.75
2023-01-09T07:08:34.519Z,64.89
2023-01-09T07:11:02.387Z,67.40
2023-01-09T07:13:29.953Z,66.97
2023-01-09T07:15:57.547Z,67.85
2023-01-09T07:18:25.574Z,66.74
2023-01-09T07:20:53.296Z,67.06
2023-01-09T07:23:20.939Z,66.87
2023-01-09T07:25:51.315Z,66.34
2023-01-09T07:28:18.898Z,67.27
2023-01-09T07:30:46.441Z,68.42
2023-01-09T07:33:14.408Z,67.84
2023-01-09T07:35:41.943Z,67.39
2023-01-09T07:38:09.579Z,66.94
2023-01-09T07:40:37.540Z,67.82
2023-01-09T07:43:05.225Z,66.97
2023-01-09T07:45:32.915Z,66.62
2023-01-09T07:48:00.854Z,67.07
2023-01-09T07:50:28.434Z,66.68
2023-01-09T07:52:56.108Z,67.29
2023-01-09T07:55:24.020Z,68.45
2023-01-09T07:57:52.309Z,67.59
2023-01-09T08:00:21.374Z,66.55
2023-01-09T08:02:53.529Z,66.54
2023-01-09T08:05:21.640Z,66.99
2023-01-09T08:07:51.439Z,66.11
2023-01-09T08:10:19.813Z,66.69
2023-01-09T08:12:48.421Z,66.35
2023-01-09T08:15:17.231Z,65.24
2023-01-09T08:17:46.604Z,64.91
2023-01-09T08:20:16.447Z,65.57
2023-01-09T08:22:50.559Z,66.19
2023-01-09T08:25:18.500Z,66.36
2023-01-09T08:27:47.207Z,64.87
2023-01-09T08:30:15.518Z,65.02
2023-01-09T08:32:43.712Z,64.12
2023-01-09T08:35:11.602Z,65.26
2023-01-09T08:37:39.168Z,64.52
2023-01-09T08:40:07.476Z,65.52
2023-01-09T08:42:54.803Z,63.87
2023-01-09T08:45:40.916Z,63.34
2023-01-09T08:48:08.932Z,63.72
2023-01-09T08:50:36.825Z,64.79
2023-01-09T08:53:04.471Z,63.59
2023-01-09T08:55:32.404Z,63.91
2023-01-09T08:58:00.555Z,62.88
2023-01-09T09:00:28.460Z,62.43
2023-01-09T09:03:01.055Z,64.06
2023-01-09T09:05:30.791Z,63.49
2023-01-09T09:07:59.623Z,62.68
2023-01-09T09:10:29.042Z,62.68
2023-01-09T09:12:58.890Z,62.19
2023-01-09T09:15:28.208Z,62.32
2023-01-09T09:17:58.283Z,62.95
2023-01-09T09:20:28.547Z,62.72
2023-01-09T09:22:56.667Z,62.62
2023-01-09T09:25:25.155Z,62.14
2023-01-09T09:27:52.732Z,60.93
2023-01-09T09:30:20.750Z,62.55
2023-01-09T09:32:49.592Z,61.85
2023-01-09T09:35:23.999Z,62.18
2023-01-09T09:37:59.752Z,62.97
2023-01-09T09:41:30.120Z,63.09
2023-01-09T09:44:54.377Z,62.90
2023-01-09T09:47:53.697Z,63.06
2023-01-09T09:51:00.061Z,62.99
2023-01-09T09:53:36.688Z,63.92
2023-01-09T09:56:05.733Z,64.33
2023-01-09T09:58:39.144Z,62.74
2023-01-09T10:01:09.429Z,63.49
2023-01-09T10:03:46.196Z,64.01
2023-01-09T10:06:48.651Z,63.89
2023-01-09T10:09:37.929Z,62.82
2023-01-09T10:12:14.544Z,61.70
2023-01-09T10:14:42.522Z,61.53
2023-01-09T10:17:28.353Z,62.47
2023-01-09T10:19:56.214Z,63.37
2023-01-09T10:22:32.463Z,63.40
2023-01-09T10:25:18.462Z,64.20
2023-01-09T10:28:04.603Z,63.09
2023-01-09T10:30:35.708Z,64.14
2023-01-09T10:33:30.544Z,63.64
2023-01-09T10:36:25.483Z,63.60
2023-01-09T10:38:57.997Z,62.73
2023-01-09T10:41:34.383Z,63.00
2023-01-09T10:44:21.286Z,63.60
2023-01-09T10:46:55.156Z,62.46
2023-01-09T10:49:24.200Z,62.29
2023-01-09T10:52:15.632Z,62.20
2023-01-09T10:55:25.499Z,62.16
2023-01-09T10:57:58.725Z,61.36
2023-01-09T11:00:26.748Z,60.82
2023-01-09T11:02:55.181Z,62.32
2023-01-09T11:05:26.746Z,61.82
2023-01-09T11:08:13.846Z,61.94
2023-01-09T11:10:46.991Z,61.24
2023-01-09T11:13:23.578Z,61.62
2023-01-09T11:16:05.908Z,62.42
2023-01-09T11:18:37.539Z,61.99
2023-01-09T11:21:34.160Z,62.28
2023-01-09T11:24:22.094Z,61.31
2023-01-09T11:26:54.637Z,62.90
2023-01-09T11:29:26.036Z,64.17
2023-01-09T11:31:59.110Z,62.87
2023-01-09T11:34:36.134Z,62.47
2023-01-09T11:37:08.946Z,63.44
2023-01-09T11:39:41.797Z,62.60
2023-01-09T11:42:45.594Z,62.25
2023-01-09T11:45:21.695Z,63.98
2023-01-09T11:47:49.271Z,63.72
2023-01-09T11:50:22.933Z,64.96
2023-01-09T11:53:13.261Z,63.80
2023-01-09T11:55:43.243Z,64.03
2023-01-09T11:58:16.739Z,64.79
2023-01-09T12:01:05.890Z,64.63
2023-01-09T12:04:03.246Z,64.16
2023-01-09T12:07:00.594Z,63.77
2023-01-09T12:09:56.851Z,63.20
2023-01-09T12:12:36.092Z,63.42
2023-01-09T13:10:03.309Z,68.07
2023-01-09T13:12:36.958Z,68.29
2023-01-09T13:15:15.054Z,67.78
2023-01-09T13:17:50.022Z,68.66
2023-01-09T13:20:36.228Z,68.39
2023-01-09T13:23:06.621Z,68.46
2023-01-09T13:25:57.790Z,68.20
2023-01-09T13:28:32.233Z,69.01
2023-01-09T13:31:24.913Z,69.38
2023-01-09T13:33:59.251Z,68.54
2023-01-09T13:36:38.060Z,69.00
2023-01-09T13:39:06.832Z,68.65
2023-01-09T13:42:05.919Z,68.12
2023-01-09T13:44:34.680Z,67.75
2023-01-09T13:47:03.487Z,69.68
2023-01-09T13:49:40.388Z,70.87
2023-01-09T13:52:36.843Z,69.59
2023-01-09T13:55:16.550Z,70.50
2023-01-09T13:58:03.163Z,70.46
2023-01-09T14:00:30.885Z,71.38
2023-01-09T14:03:08.083Z,70.48
2023-01-09T14:05:35.694Z,70.92
2023-01-09T14:08:06.967Z,70.49
2023-01-09T14:10:43.318Z,71.21
2023-01-09T14:13:25.208Z,70.68
2023-01-09T14:16:01.073Z,72.00
2023-01-09T14:18:32.882Z,70.78
2023-01-09T14:23:51.600Z,72.54
2023-01-09T14:26:22.572Z,72.78
2023-01-09T14:28:50.698Z,73.41
2023-01-09T14:31:36.517Z,74.59
2023-01-09T14:34:31.884Z,73.87
2023-01-09T14:37:02.705Z,73.07
2023-01-09T14:39:32.533Z,74.64
2023-01-09T14:42:09.153Z,75.70
2023-01-09T14:44:42.930Z,74.74
2023-01-09T14:47:36.911Z,73.84
2023-01-09T14:50:32.766Z,75.03
2023-01-09T14:53:13.446Z,74.28
2023-01-09T14:55:52.404Z,76.09
2023-01-09T14:58:25.861Z,75.34
2023-01-09T15:01:00.339Z,74.75
2023-01-09T15:03:49.584Z,76.33
2023-01-09T15:06:23.293Z,76.83
2023-01-09T15:08:57.330Z,76.36
2023-01-09T15:11:26.502Z,76.54
2023-01-09T15:13:57.238Z,77.09
2023-01-09T15:16:26.487Z,77.33
2023-01-09T15:19:02.136Z,77.66
2023-01-09T15:21:31.753Z,76.00
2023-01-09T15:24:34.368Z,77.21
2023-01-09T15:27:10.364Z,76.81
2023-01-09T15:29:37.989Z,77.40
2023-01-09T15:32:24.051Z,77.59
2023-01-09T15:34:53.509Z,78.41
2023-01-09T15:37:24.304Z,78.47
2023-01-09T15:39:52.679Z,77.28
2023-01-09T15:42:44.930Z,78.74
2023-01-09T15:45:37.202Z,78.29
2023-01-09T15:48:25.880Z,81.23
2023-01-09T15:51:04.343Z,79.12
2023-01-09T15:53:32.209Z,80.62
2023-01-09T15:56:12.094Z,80.16
2023-01-09T15:58:47.084Z,79.85
2023-01-09T16:01:35.325Z,80.45
2023-01-09T16:04:17.366Z,80.96
2023-01-09T16:06:50.456Z,79.67
2023-01-09T16:09:23.945Z,82.60
2023-01-09T16:11:55.437Z,82.34
2023-01-09T16:14:47.660Z,80.42
2023-01-09T16:17:17.830Z,80.49
2023-01-09T16:19:48.619Z,79.12
2023-01-09T16:22:27.155Z,79.32
2023-01-09T16:24:58.845Z,81.28
2023-01-09T16:27:30.362Z,78.94
2023-01-09T16:29:59.630Z,79.14
2023-01-09T16:32:34.156Z,80.91
2023-01-09T16:35:07.799Z,80.59
2023-01-09T16:37:36.120Z,79.70
2023-01-09T16:40:24.298Z,78.29
2023-01-09T16:43:07.118Z,78.47
2023-01-09T16:45:40.242Z,79.24
2023-01-09T16:48:22.458Z,78.69
2023-01-09T16:50:50.620Z,79.32
2023-01-09T16:53:25.708Z,78.73
2023-01-09T16:55:54.561Z,78.27
2023-01-09T16:58:28.785Z,78.67
2023-01-09T17:00:57.708Z,78.16
2023-01-09T17:03:26.091Z,79.47
2023-01-09T17:05:56.367Z,79.18
2023-01-09T17:08:29.420Z,79.02
2023-01-09T17:10:57.723Z,79.71
2023-01-09T17:13:26.254Z,80.37
2023-01-09T17:15:55.705Z,80.84
2023-01-09T17:18:25.521Z,81.70
2023-01-09T17:20:56.186Z,82.08
2023-01-09T17:23:25.911Z,82.57
2023-01-09T17:26:16.227Z,82.99
2023-01-09T17:28:48.291Z,83.18
2023-01-09T17:31:16.432Z,83.59
2023-01-09T17:33:44.100Z,83.89
2023-01-09T17:36:37.813Z,84.48
2023-01-09T17:39:05.789Z,84.72
2023-01-09T17:41:33.674Z,85.61
2023-01-09T17:44:01.375Z,85.81
2023-01-09T17:46:32.451Z,86.13
2023-01-09T17:49:01.056Z,86.15
2023-01-09T17:51:29.780Z,86.09
2023-01-09T17:53:57.963Z,86.28
2023-01-09T17:56:28.512Z,86.21
2023-01-09T17:58:57.400Z,85.68
2023-01-09T18:01:25.307Z,85.85
2023-01-09T18:03:53.364Z,85.36
2023-01-09T18:06:24.976Z,85.66
2023-01-09T18:08:53.195Z,84.81
2023-01-09T18:11:22.017Z,85.05
2023-01-09T18:13:52.040Z,84.50
2023-01-09T18:16:25.565Z,84.18
2023-01-09T18:18:54.811Z,84.61
2023-01-09T18:21:25.350Z,84.98
2023-01-09T18:23:53.291Z,84.84
2023-01-09T18:26:22.491Z,84.89
2023-01-09T18:28:54.834Z,84.46
2023-01-09T18:31:23.908Z,84.86
2023-01-09T18:33:53.477Z,85.24
2023-01-09T18:36:23.815Z,84.28
2023-01-09T18:38:53.533Z,84.00
2023-01-09T18:41:22.519Z,84.08
2023-01-09T18:43:55.820Z,84.09
2023-01-09T18:46:24.719Z,83.64
2023-01-09T18:48:53.496Z,83.21
2023-01-09T18:51:22.506Z,83.01
2023-01-09T18:53:51.719Z,83.04
2023-01-09T18:56:20.140Z,83.07
2023-01-09T18:58:48.804Z,83.29
2023-01-09T19:01:17.086Z,83.37
2023-01-09T19:03:46.130Z,83.50
2023-01-09T19:06:14.021Z,83.16
2023-01-09T19:08:42.137Z,83.32
2023-01-09T19:11:10.035Z,83.33
2023-01-09T19:13:38.012Z,82.93
2023-01-09T19:16:08.079Z,82.52
2023-01-09T19:18:39.341Z,82.95
2023-01-09T19:21:19.519Z,82.51
2023-01-09T19:23:48.391Z,81.66
2023-01-09T19:26:20.330Z,81.48
2023-01-09T19:28:48.305Z,81.59
2023-01-09T19:31:17.687Z,81.67
2023-01-09T19:33:45.562Z,82.03
2023-01-09T19:36:13.474Z,82.08
2023-01-09T19:38:41.622Z,82.47
2023-01-09T19:41:14.146Z,82.41
2023-01-09T19:43:42.167Z,82.09
2023-01-09T19:46:12.561Z,81.90
2023-01-09T19:48:42.555Z,82.19
2023-01-09T19:51:12.795Z,81.77
2023-01-09T19:53:40.414Z,82.22
2023-01-09T19:56:14.286Z,82.05
2023-01-09T19:58:47.443Z,82.18
2023-01-09T20:01:18.543Z,83.66
2023-01-09T20:03:48.611Z,82.89
2023-01-09T20:06:19.005Z,82.55
2023-01-09T20:08:48.788Z,83.09
2023-01-09T20:11:17.146Z,83.12
2023-01-09T20:13:45.160Z,82.70
2023-01-09T20:16:16.310Z,82.63
2023-01-09T20:18:43.984Z,83.48
2023-01-09T20:21:18.554Z,83.19
2023-01-09T20:23:46.546Z,83.25
2023-01-09T20:26:14.886Z,83.34
2023-01-09T20:28:45.979Z,83.54
2023-01-09T20:31:17.100Z,83.36
2023-01-09T20:33:48.953Z,83.18
2023-01-09T20:36:17.347Z,83.59
2023-01-09T20:38:45.264Z,84.38
2023-01-09T20:41:22.810Z,84.03
2023-01-09T20:44:05.802Z,84.09
2023-01-09T20:46:37.885Z,84.50
2023-01-09T20:49:07.939Z,84.08
2023-01-09T20:51:37.326Z,84.10
2023-01-09T20:54:05.064Z,83.95
2023-01-09T20:56:33.090Z,84.62
2023-01-09T20:59:01.258Z,84.25
2023-01-09T21:01:29.236Z,84.23
2023-01-09T21:03:57.951Z,84.35
2023-01-09T21:06:27.391Z,84.62
2023-01-09T21:08:55.658Z,85.27
2023-01-09T21:11:23.884Z,84.64
2023-01-09T21:13:52.150Z,85.09
2023-01-09T21:16:24.341Z,84.75
2023-01-09T21:18:53.974Z,84.83
2023-01-09T21:21:25.113Z,84.93
2023-01-09T21:23:58.053Z,84.67
2023-01-09T21:26:28.997Z,85.03
2023-01-09T21:28:58.141Z,85.86
2023-01-09T21:31:34.826Z,85.41
2023-01-09T21:34:08.137Z,85.97
2023-01-09T21:36:36.248Z,86.45
2023-01-09T21:39:07.935Z,86.42
2023-01-09T21:41:55.041Z,86.40
2023-01-09T21:44:41.503Z,86.37
2023-01-09T21:47:09.569Z,87.11
2023-01-09T21:49:42.952Z,87.20
2023-01-09T21:52:15.522Z,87.46
2023-01-09T21:54:44.282Z,87.88
2023-01-09T21:57:13.014Z,88.03
2023-01-09T21:59:41.371Z,88.72
2023-01-09T22:02:13.463Z,88.60
2023-01-09T22:04:43.057Z,88.42
2023-01-09T22:07:10.665Z,88.77
2023-01-09T22:09:38.213Z,88.11
2023-01-09T22:12:06.417Z,88.46
2023-01-09T22:14:34.020Z,89.00
2023-01-09T22:17:01.650Z,88.56
2023-01-09T22:19:29.647Z,88.88
2023-01-09T22:21:57.356Z,88.27
2023-01-09T22:24:25.075Z,88.70
2023-01-09T22:26:52.904Z,88.14
2023-01-09T22:29:21.885Z,88.64
2023-01-09T22:31:49.515Z,88.81
2023-01-09T22:34:18.761Z,88.94
2023-01-09T22:36:47.190Z,88.98
2023-01-09T22:39:18.055Z,89.35
2023-01-09T22:41:50.521Z,88.95
2023-01-09T22:44:19.132Z,89.21
2023-01-09T22:46:47.130Z,89.31
2023-01-09T22:49:14.769Z,89.76
2023-01-09T22:51:42.413Z,89.70
2023-01-09T22:54:10.314Z,89.63
2023-01-09T22:56:38.036Z,89.97
2023-01-09T22:59:06.006Z,90.48
2023-01-09T23:01:33.926Z,89.80
2023-01-09T23:04:03.677Z,89.67
2023-01-09T23:06:31.255Z,90.52
2023-01-09T23:08:59.198Z,89.81
2023-01-09T23:11:49.263Z,90.03
2023-01-09T23:14:17.817Z,89.61
2023-01-09T23:16:45.610Z,89.53
2023-01-09T23:19:16.725Z,89.85
2023-01-09T23:21:44.878Z,89.90
2023-01-09T23:24:14.630Z,90.71
2023-01-09T23:26:43.906Z,90.39
2023-01-09T23:29:12.757Z,90.42
2023-01-09T23:31:40.526Z,90.53
2023-01-09T23:34:08.453Z,90.76
2023-01-09T23:36:36.426Z,90.54
2023-01-09T23:39:08.849Z,91.22
2023-01-09T23:41:56.335Z,90.83
2023-01-09T23:44:24.107Z,91.36
2023-01-09T23:46:52.275Z,91.28
2023-01-09T23:49:20.155Z,91.50
2023-01-09T23:51:47.862Z,91.86
2023-01-09T23:54:16.825Z,92.43
2023-01-09T23:56:44.858Z,91.77
2023-01-09T23:59:14.614Z,92.12
